CheckWX is a tool to help pilots better visualize weather data.  It is not intended as a substitute for an official pre-flight weather briefing.

00:11:52 UTC

KBBG METAR
Branson Airport
Branson, Missouri, USA
Current

27 mins ago

KBBG 242345Z 30011KT 7SM OVC011 09/08 A2964
Observed
Feb-24 @ 23:45 UTC
Wind
  • 300° at 11 KTS
Visibility
7 SM
Flight Rules
MVFR
Cloud Levels
  • Overcast at 1,100' AGL
Temperature
C / 48°F
Dewpoint
C / 46°F
Humidity
94%
Altimeter
29.64" Hg
Pressure
1003.72 hPa
Previous

1 hour ago

KBBG 242245Z 27004KT 9SM OVC011 08/08 A2959
Observed
Feb-24 @ 22:45 UTC
Wind
  • 270° at 4 KTS
Visibility
9 SM
Flight Rules
MVFR
Cloud Levels
  • Overcast at 1,100' AGL
Temperature
C / 46°F
Dewpoint
C / 46°F
Humidity
100%
Altimeter
29.59" Hg
Pressure
1002.02 hPa
Previous

2 hours ago

KBBG 242145Z 25008KT 3SM BR OVC013 09/07 A2958
Observed
Feb-24 @ 21:45 UTC
Wind
  • 250° at 8 KTS
Visibility
3 SM
Flight Rules
MVFR
Conditions
Mist
Cloud Levels
  • Overcast at 1,300' AGL
Temperature
C / 48°F
Dewpoint
C / 45°F
Humidity
87%
Altimeter
29.58" Hg
Pressure
1001.72 hPa